Terminal Aerodrome Forecast
Issued by NWS

Home | Current Version | Previous Version | Text Only | Print | Product List | Glossary On
Versions: 1 2 3 4 5 6 7 8 9 10 11 12 13 14 15
000
FTUS42 TJSJ 310536
TAFJSJ
TAF
TJSJ 310536Z 3106/0106 11005KT P6SM VCSH FEW022 SCT045
     FM311330 08015G25KT P6SM SCT030 SCT050
     FM312330 10010KT P6SM FEW025 FEW040=

USA.gov is the U.S. government's official web portal to all federal, state and local government web resources and services.